Time;durP1;ratioP1;P1;durP2;ratioP2;P2;SDS_P1;SDS_P2;PMS_P1;PMS_P2;Temp;Humidity;BMP_temperature;BMP_pressure;BME280_temperature;BME280_humidity;BME280_pressure;Samples;Min_cycle;Max_cycle;Signal;HPM_P1;HPM_P2
2022/12/01 07:50:05;;;;;;;;;;;6.60;99.90;;;;;;2604835;54;19969;-69
2022/12/01 07:52:35;;;;;;;;;;;6.60;99.90;;;;;;2614626;54;19951;-70
2022/12/01 07:55:05;;;;;;;;;;;6.60;99.90;;;;;;2616466;39;20067;-69
2022/12/01 07:57:35;;;;;;;;;;;6.60;99.90;;;;;;2617065;47;19947;-68
2022/12/01 08:00:06;;;;;;;;;;;6.50;99.90;;;;;;2616449;39;20396;-71
2022/12/01 08:02:36;;;;;;;;;;;6.60;99.90;;;;;;2615399;54;19946;-71
2022/12/01 08:05:11;;;;;;;;;;;6.60;99.90;;;;;;2615358;47;19954;-71
2022/12/01 08:07:48;;;;;;;;;;;6.60;99.90;;;;;;2615433;31;20485;-72
2022/12/01 08:10:30;;;;;;;;;;;6.60;99.90;;;;;;2615843;47;20000;-71
2022/12/01 08:13:03;;;;;;;;;;;6.60;99.90;;;;;;2615860;54;20483;-67
2022/12/01 08:15:33;;;;;;;;;;;6.60;99.90;;;;;;2615662;51;20482;-68
2022/12/01 08:18:03;;;;;;;;;;;6.60;99.90;;;;;;2615799;54;20052;-68
2022/12/01 08:20:36;;;;;;;;;;;6.50;99.90;;;;;;2616179;39;20407;-69
2022/12/01 08:23:06;;;;;;;;;;;6.50;99.90;;;;;;2618211;54;19971;-68
2022/12/01 08:25:36;;;;;;;;;;;6.40;99.90;;;;;;2617014;47;19956;-69
2022/12/01 08:28:06;;;;;;;;;;;6.40;99.90;;;;;;2616325;47;19946;-69
2022/12/01 08:30:37;;;;;;;;;;;6.40;99.90;;;;;;2620207;54;19962;-69
2022/12/01 08:33:07;;;;;;;;;;;6.40;99.90;;;;;;2623682;46;19976;-68
2022/12/01 08:35:39;;;;;;;;;;;6.40;99.90;;;;;;2615332;54;19950;-70
2022/12/01 08:38:11;;;;;;;;;;;6.60;99.90;;;;;;2618242;39;20677;-74
2022/12/01 08:40:40;;;;;;;;;;;6.60;99.90;;;;;;2621947;54;20042;-73
2022/12/01 08:43:10;;;;;;;;;;;6.40;99.90;;;;;;2617306;54;20018;-74
2022/12/01 08:46:00;;;;;;;;;;;6.40;99.90;;;;;;2615258;54;19981;-73
2022/12/01 08:48:30;;;;;;;;;;;6.40;99.90;;;;;;2614990;47;19946;-73
2022/12/01 08:51:06;;;;;;;;;;;6.40;99.90;;;;;;2615403;39;20401;-73
2022/12/01 08:53:37;;;;;;;;;;;6.30;99.90;;;;;;2614388;51;19946;-73
2022/12/01 08:56:15;;;;;;;;;;;6.40;99.90;;;;;;2616034;51;19953;-75
2022/12/01 08:58:44;;;;;;;;;;;6.40;99.90;;;;;;2619846;47;19954;-72
2022/12/01 09:01:15;;;;;;;;;;;6.40;99.90;;;;;;2617589;46;19950;-75
2022/12/01 09:03:45;;;;;;;;;;;6.40;99.90;;;;;;2616424;50;19969;-73
2022/12/01 09:06:19;;;;;;;;;;;6.40;99.90;;;;;;2616690;54;19950;-74
2022/12/01 09:08:49;;;;;;;;;;;6.30;99.90;;;;;;2616347;54;19946;-74
2022/12/01 09:11:19;;;;;;;;;;;6.30;99.90;;;;;;2617768;46;20050;-73
2022/12/01 09:13:49;;;;;;;;;;;6.30;99.90;;;;;;2619122;47;20533;-73
2022/12/01 09:16:23;;;;;;;;;;;6.00;99.90;;;;;;2617530;46;19962;-73
2022/12/01 09:18:53;;;;;;;;;;;6.30;99.90;;;;;;2617595;47;20012;-73
2022/12/01 09:21:26;;;;;;;;;;;6.30;99.90;;;;;;2617877;54;19939;-73
2022/12/01 09:23:55;;;;;;;;;;;6.30;99.90;;;;;;2617616;46;19965;-73
2022/12/01 09:26:25;;;;;;;;;;;6.30;99.90;;;;;;2617910;54;19955;-73
2022/12/01 09:28:56;;;;;;;;;;;6.40;99.90;;;;;;2619032;47;20007;-73
2022/12/01 09:31:25;;;;;;;;;;;6.30;99.90;;;;;;2617835;54;19946;-74
2022/12/01 09:33:56;;;;;;;;;;;6.30;99.90;;;;;;2618819;54;20471;-75
2022/12/01 09:36:28;;;;;;;;;;;6.30;99.90;;;;;;2618907;47;19955;-72
2022/12/01 09:38:58;;;;;;;;;;;6.30;99.90;;;;;;2618281;47;19957;-71
2022/12/01 09:41:28;;;;;;;;;;;6.30;99.90;;;;;;2618347;47;19958;-72
2022/12/01 09:44:00;;;;;;;;;;;6.30;99.90;;;;;;2620083;54;20004;-72
2022/12/01 09:46:32;;;;;;;;;;;6.30;99.90;;;;;;2623012;47;19965;-74
2022/12/01 09:49:04;;;;;;;;;;;6.30;99.90;;;;;;2620297;47;19953;-73
2022/12/01 09:51:37;;;;;;;;;;;6.30;99.90;;;;;;2623951;54;19953;-71
2022/12/01 09:54:08;;;;;;;;;;;6.30;99.90;;;;;;2620018;39;20430;-72
2022/12/01 09:56:41;;;;;;;;;;;6.30;99.90;;;;;;2620489;31;20480;-71
2022/12/01 09:59:16;;;;;;;;;;;6.30;99.90;;;;;;2618177;54;19957;-72
2022/12/01 10:01:48;;;;;;;;;;;6.40;99.90;;;;;;2617632;54;19985;-71
2022/12/01 10:04:19;;;;;;;;;;;6.40;99.90;;;;;;2618024;54;19946;-71
2022/12/01 10:06:53;;;;;;;;;;;6.40;99.90;;;;;;2619349;46;20463;-70
2022/12/01 10:09:24;;;;;;;;;;;6.40;99.90;;;;;;2617316;54;19950;-70
2022/12/01 10:11:56;;;;;;;;;;;6.50;99.90;;;;;;2617670;54;20690;-70
2022/12/01 10:14:25;;;;;;;;;;;6.50;99.90;;;;;;2616964;54;19957;-71
2022/12/01 10:17:00;;;;;;;;;;;6.50;99.90;;;;;;2619204;39;20360;-70
2022/12/01 10:19:32;;;;;;;;;;;6.50;99.90;;;;;;2618082;47;19965;-72
2022/12/01 10:22:12;;;;;;;;;;;6.50;99.90;;;;;;2618260;54;19946;-69
2022/12/01 10:24:49;;;;;;;;;;;6.50;99.90;;;;;;2618608;54;19950;-71
2022/12/01 10:27:29;;;;;;;;;;;6.50;99.90;;;;;;2619290;47;19946;-74
2022/12/01 10:30:03;;;;;;;;;;;6.40;99.90;;;;;;2619566;54;19961;-71
2022/12/01 10:32:37;;;;;;;;;;;6.40;99.90;;;;;;2620147;54;19946;-71
2022/12/01 10:35:07;;;;;;;;;;;6.40;99.90;;;;;;2618927;54;19939;-70
2022/12/01 10:37:40;;;;;;;;;;;6.30;99.90;;;;;;2618917;47;19992;-71
2022/12/01 10:40:17;;;;;;;;;;;6.40;99.90;;;;;;2623708;54;20015;-72
2022/12/01 10:42:48;;;;;;;;;;;6.40;99.90;;;;;;2623996;54;19946;-72
2022/12/01 10:45:19;;;;;;;;;;;6.30;99.90;;;;;;2622123;47;19938;-72
2022/12/01 10:48:04;;;;;;;;;;;6.30;99.90;;;;;;2621389;46;20505;-72
2022/12/01 10:50:34;;;;;;;;;;;6.40;99.90;;;;;;2618292;47;19954;-73
2022/12/01 10:53:06;;;;;;;;;;;6.40;99.90;;;;;;2617558;47;19951;-73
2022/12/01 10:55:38;;;;;;;;;;;6.30;99.90;;;;;;2618311;47;19938;-72
2022/12/01 10:58:17;;;;;;;;;;;6.30;99.90;;;;;;2619335;39;20343;-72
2022/12/01 11:00:56;;;;;;;;;;;6.30;99.90;;;;;;2619076;50;19938;-74
2022/12/01 11:03:29;;;;;;;;;;;6.30;99.90;;;;;;2618027;47;19942;-73
2022/12/01 11:06:02;;;;;;;;;;;6.40;99.90;;;;;;2617826;54;19995;-72
2022/12/01 11:08:37;;;;;;;;;;;6.40;99.90;;;;;;2618491;54;20667;-72
2022/12/01 11:11:07;;;;;;;;;;;6.50;99.90;;;;;;2621535;51;19950;-73
2022/12/01 11:13:38;;;;;;;;;;;6.60;99.90;;;;;;2623749;47;19956;-72
2022/12/01 11:16:08;;;;;;;;;;;6.60;99.90;;;;;;2624430;47;19972;-73
2022/12/01 11:18:39;;;;;;;;;;;6.70;99.90;;;;;;2621231;47;19950;-74
2022/12/01 11:21:10;;;;;;;;;;;6.70;99.90;;;;;;2620579;47;19942;-73
2022/12/01 11:23:46;;;;;;;;;;;6.70;99.90;;;;;;2619351;47;20494;-72
2022/12/01 11:26:17;;;;;;;;;;;6.70;99.90;;;;;;2618996;46;19954;-74
2022/12/01 11:28:53;;;;;;;;;;;6.70;99.90;;;;;;2619578;51;19987;-71
2022/12/01 11:31:24;;;;;;;;;;;6.70;99.90;;;;;;2623819;54;19980;-73
2022/12/01 11:33:54;;;;;;;;;;;6.70;99.90;;;;;;2619424;47;19947;-74
2022/12/01 11:36:27;;;;;;;;;;;6.70;99.90;;;;;;2619012;47;19953;-71
2022/12/01 11:39:01;;;;;;;;;;;6.80;99.90;;;;;;2619079;54;19954;-71
2022/12/01 11:41:33;;;;;;;;;;;6.80;99.90;;;;;;2621591;47;19942;-72
2022/12/01 11:44:03;;;;;;;;;;;6.80;99.90;;;;;;2618830;54;19947;-72
2022/12/01 11:46:51;;;;;;;;;;;7.30;99.90;;;;;;2618804;47;19939;-72
2022/12/01 11:49:42;;;;;;;;;;;6.80;99.90;;;;;;2618815;47;19946;-72
2022/12/01 11:52:19;;;;;;;;;;;6.90;99.90;;;;;;2622181;54;20533;-76
2022/12/01 11:54:59;;;;;;;;;;;6.90;99.90;;;;;;2624575;51;19946;-71
2022/12/01 11:57:33;;;;;;;;;;;6.90;99.90;;;;;;2618448;47;19954;-72
2022/12/01 12:00:04;;;;;;;;;;;7.00;99.90;;;;;;2618685;47;19947;-73
2022/12/01 12:02:37;;;;;;;;;;;7.00;99.90;;;;;;2617633;47;19954;-72
2022/12/01 12:05:47;;;;;;;;;;;7.00;99.90;;;;;;2617200;54;19957;-74
2022/12/01 12:08:44;;;;;;;;;;;7.00;99.90;;;;;;2618262;39;20013;-74
2022/12/01 12:11:40;;;;;;;;;;;7.00;99.90;;;;;;2617995;39;20448;-72
2022/12/01 12:14:38;;;;;;;;;;;7.00;99.90;;;;;;2618175;54;19994;-72
2022/12/01 12:17:22;;;;;;;;;;;7.00;99.90;;;;;;2618819;39;20367;-72
2022/12/01 12:26:27;;;;;;;;;;;7.00;99.90;;;;;;2623198;47;20046;-73
2022/12/01 12:29:39;;;;;;;;;;;7.00;99.90;;;;;;2618564;47;20507;-71
2022/12/01 12:32:26;;;;;;;;;;;7.10;99.90;;;;;;2617466;54;19947;-72
2022/12/01 12:35:05;;;;;;;;;;;7.10;99.90;;;;;;2618132;46;19958;-72
2022/12/01 12:37:53;;;;;;;;;;;7.10;99.90;;;;;;2618521;54;19946;-73
2022/12/01 12:40:40;;;;;;;;;;;7.10;99.90;;;;;;2618021;46;19947;-72
2022/12/01 12:43:28;;;;;;;;;;;7.10;99.90;;;;;;2618256;54;19950;-71
2022/12/01 12:46:12;;;;;;;;;;;7.10;99.90;;;;;;2620100;48;20202;-71
2022/12/01 12:49:06;;;;;;;;;;;7.20;99.90;;;;;;2620758;47;19946;-71
2022/12/01 12:52:12;;;;;;;;;;;7.20;99.90;;;;;;2620815;47;19954;-72
2022/12/01 12:54:58;;;;;;;;;;;7.20;99.90;;;;;;2620311;54;20073;-74
2022/12/01 12:57:33;;;;;;;;;;;7.10;99.90;;;;;;2621098;54;19947;-74
2022/12/01 13:00:20;;;;;;;;;;;7.10;99.90;;;;;;2618610;47;19950;-71
2022/12/01 13:03:06;;;;;;;;;;;7.30;99.90;;;;;;2622387;46;19947;-71
2022/12/01 13:05:38;;;;;;;;;;;7.10;99.90;;;;;;2624568;47;19938;-73
2022/12/01 13:08:10;;;;;;;;;;;7.10;99.90;;;;;;2618589;50;19951;-71
2022/12/01 13:10:44;;;;;;;;;;;7.10;99.90;;;;;;2617441;46;19988;-71
2022/12/01 13:13:18;;;;;;;;;;;7.10;99.90;;;;;;2619740;47;20000;-72
2022/12/01 13:15:49;;;;;;;;;;;6.90;99.90;;;;;;2619230;47;19946;-71
2022/12/01 13:18:26;;;;;;;;;;;7.00;99.90;;;;;;2617345;54;19947;-70
2022/12/01 13:20:57;;;;;;;;;;;6.90;99.90;;;;;;2616427;47;19973;-72
2022/12/01 13:23:27;;;;;;;;;;;7.00;99.90;;;;;;2616184;47;20768;-71
2022/12/01 13:25:58;;;;;;;;;;;6.80;99.90;;;;;;2617407;47;19946;-72
2022/12/01 13:28:29;;;;;;;;;;;7.00;99.90;;;;;;2617545;39;20355;-70
2022/12/01 13:31:03;;;;;;;;;;;7.00;99.90;;;;;;2616748;47;19950;-71
2022/12/01 13:33:36;;;;;;;;;;;7.00;99.90;;;;;;2617477;39;20610;-70
2022/12/01 13:36:10;;;;;;;;;;;7.00;99.90;;;;;;2618111;47;19981;-70
2022/12/01 13:39:01;;;;;;;;;;;7.00;99.90;;;;;;2622669;47;20156;-72
2022/12/01 13:41:33;;;;;;;;;;;7.00;99.90;;;;;;2620874;54;19980;-71
2022/12/01 13:44:05;;;;;;;;;;;7.00;99.90;;;;;;2618207;46;20014;-70
2022/12/01 13:46:52;;;;;;;;;;;7.10;99.90;;;;;;2617093;54;20514;-69
2022/12/01 13:49:43;;;;;;;;;;;7.20;99.90;;;;;;2615876;54;19946;-69
2022/12/01 13:52:40;;;;;;;;;;;7.30;99.90;;;;;;2617347;46;20034;-68
2022/12/01 13:55:28;;;;;;;;;;;7.30;99.90;;;;;;2617385;54;19951;-69
2022/12/01 13:58:13;;;;;;;;;;;7.30;99.90;;;;;;2617886;47;19973;-69
2022/12/01 14:00:42;;;;;;;;;;;7.30;99.90;;;;;;2623635;54;19972;-70
2022/12/01 14:03:27;;;;;;;;;;;7.30;99.90;;;;;;2623906;47;19954;-70
2022/12/01 14:05:58;;;;;;;;;;;7.20;99.90;;;;;;2616520;54;19938;-72
2022/12/01 14:08:28;;;;;;;;;;;7.30;99.90;;;;;;2618165;54;19956;-72
2022/12/01 14:11:02;;;;;;;;;;;7.30;99.90;;;;;;2618186;39;20627;-71
2022/12/01 14:13:32;;;;;;;;;;;7.40;99.90;;;;;;2620177;47;20000;-71
2022/12/01 14:16:03;;;;;;;;;;;7.40;99.90;;;;;;2624230;47;19946;-70
2022/12/01 14:18:34;;;;;;;;;;;7.40;99.90;;;;;;2619553;47;19958;-71
2022/12/01 14:21:06;;;;;;;;;;;7.50;99.90;;;;;;2617631;54;20539;-71
2022/12/01 14:23:37;;;;;;;;;;;7.50;99.90;;;;;;2622213;47;19950;-70
2022/12/01 14:26:21;;;;;;;;;;;7.40;99.90;;;;;;2624551;54;20505;-70
2022/12/01 14:29:11;;;;;;;;;;;7.40;99.90;;;;;;2618490;51;19950;-70
2022/12/01 14:31:55;;;;;;;;;;;7.40;99.90;;;;;;2617229;51;20464;-70
2022/12/01 14:34:27;;;;;;;;;;;7.40;99.90;;;;;;2618044;54;19946;-70
2022/12/01 14:37:00;;;;;;;;;;;7.20;99.90;;;;;;2616621;54;20069;-69
2022/12/01 14:39:30;;;;;;;;;;;7.10;99.90;;;;;;2617300;54;20424;-71
2022/12/01 14:42:05;;;;;;;;;;;7.10;99.90;;;;;;2617243;54;20070;-69
2022/12/01 14:44:34;;;;;;;;;;;7.00;99.90;;;;;;2617159;47;19954;-68
2022/12/01 14:47:18;;;;;;;;;;;7.10;99.90;;;;;;2618480;47;19946;-72
2022/12/01 14:49:51;;;;;;;;;;;7.20;99.90;;;;;;2622159;47;19943;-71
2022/12/01 14:52:25;;;;;;;;;;;7.20;99.90;;;;;;2624309;48;19954;-70
2022/12/01 14:54:56;;;;;;;;;;;7.10;99.90;;;;;;2624533;47;19953;-72
2022/12/01 14:57:30;;;;;;;;;;;7.10;99.90;;;;;;2625259;47;19938;-71
2022/12/01 15:00:03;;;;;;;;;;;7.10;99.90;;;;;;2624405;47;19946;-68
2022/12/01 15:02:33;;;;;;;;;;;7.10;99.90;;;;;;2623925;47;20699;-70
2022/12/01 15:05:10;;;;;;;;;;;7.20;99.90;;;;;;2623085;54;20011;-69
2022/12/01 15:07:40;;;;;;;;;;;7.20;99.90;;;;;;2619421;47;20436;-70
2022/12/01 15:10:17;;;;;;;;;;;7.20;99.90;;;;;;2618408;54;19983;-71
2022/12/01 15:12:50;;;;;;;;;;;7.40;99.90;;;;;;2618223;54;19947;-72
2022/12/01 15:15:21;;;;;;;;;;;7.30;99.90;;;;;;2617463;51;19947;-71
2022/12/01 15:17:54;;;;;;;;;;;7.20;99.90;;;;;;2621288;54;19951;-69
2022/12/01 15:20:31;;;;;;;;;;;7.30;99.90;;;;;;2618234;51;19954;-69
2022/12/01 15:23:01;;;;;;;;;;;7.20;99.90;;;;;;2617967;47;20668;-71
2022/12/01 15:25:34;;;;;;;;;;;7.10;99.90;;;;;;2617760;54;19942;-70
2022/12/01 15:28:13;;;;;;;;;;;7.10;99.90;;;;;;2620614;47;19952;-75
2022/12/01 15:30:44;;;;;;;;;;;7.00;99.90;;;;;;2624478;54;19953;-69
2022/12/01 15:33:17;;;;;;;;;;;7.00;99.90;;;;;;2621144;54;19972;-69
2022/12/01 15:35:52;;;;;;;;;;;7.00;99.90;;;;;;2619282;54;20550;-70
2022/12/01 15:38:23;;;;;;;;;;;6.90;99.90;;;;;;2623606;54;19957;-69
2022/12/01 15:40:53;;;;;;;;;;;6.90;99.90;;;;;;2620961;47;19946;-69
2022/12/01 15:43:45;;;;;;;;;;;6.80;99.90;;;;;;2618815;39;20344;-70
2022/12/01 15:46:15;;;;;;;;;;;6.80;99.90;;;;;;2622992;47;19972;-68
2022/12/01 15:48:46;;;;;;;;;;;6.80;99.90;;;;;;2622264;47;19939;-69
2022/12/01 15:51:17;;;;;;;;;;;6.70;99.90;;;;;;2618255;54;20463;-68
2022/12/01 15:53:50;;;;;;;;;;;6.70;99.90;;;;;;2619789;47;19947;-72
2022/12/01 15:56:25;;;;;;;;;;;6.70;99.90;;;;;;2618587;47;19951;-74
2022/12/01 15:59:00;;;;;;;;;;;6.70;99.90;;;;;;2618725;47;19953;-75
2022/12/01 16:01:31;;;;;;;;;;;6.60;99.90;;;;;;2619427;47;19995;-76
2022/12/01 16:04:04;;;;;;;;;;;6.50;99.90;;;;;;2618008;47;19939;-69
2022/12/01 16:06:37;;;;;;;;;;;6.50;99.90;;;;;;2618086;47;19997;-68
2022/12/01 16:09:09;;;;;;;;;;;6.50;99.90;;;;;;2618698;47;20062;-71
2022/12/01 16:11:38;;;;;;;;;;;6.40;99.90;;;;;;2615309;54;19982;-71
2022/12/01 16:14:23;;;;;;;;;;;6.40;99.90;;;;;;2617259;47;19969;-71
2022/12/01 16:16:53;;;;;;;;;;;6.40;99.90;;;;;;2617717;47;19947;-71
2022/12/01 16:19:25;;;;;;;;;;;6.40;99.90;;;;;;2619268;47;20487;-72
2022/12/01 16:21:56;;;;;;;;;;;6.30;99.90;;;;;;2617516;54;19947;-71
2022/12/01 16:24:29;;;;;;;;;;;6.30;99.90;;;;;;2617717;47;19950;-72
2022/12/01 16:27:02;;;;;;;;;;;6.30;99.90;;;;;;2618446;54;19957;-69
2022/12/01 16:29:36;;;;;;;;;;;6.30;99.90;;;;;;2618835;47;20474;-68
2022/12/01 16:32:11;;;;;;;;;;;6.30;99.90;;;;;;2620899;54;20013;-70
2022/12/01 16:34:49;;;;;;;;;;;6.30;99.90;;;;;;2620085;47;20444;-68
2022/12/01 16:37:18;;;;;;;;;;;6.30;99.90;;;;;;2619216;54;19950;-69
2022/12/01 16:39:48;;;;;;;;;;;6.30;99.90;;;;;;2619027;47;20511;-69
2022/12/01 16:42:19;;;;;;;;;;;6.30;99.90;;;;;;2618732;54;19943;-70
2022/12/01 16:44:52;;;;;;;;;;;6.30;99.90;;;;;;2622148;47;19942;-70
2022/12/01 16:47:23;;;;;;;;;;;6.30;99.90;;;;;;2619473;47;19954;-69
2022/12/01 16:49:53;;;;;;;;;;;6.20;99.90;;;;;;2616390;47;19947;-69
2022/12/01 16:52:22;;;;;;;;;;;6.10;99.90;;;;;;2616496;54;19939;-71
2022/12/01 16:55:27;;;;;;;;;;;6.00;99.90;;;;;;2618107;54;20014;-70
2022/12/01 16:57:57;;;;;;;;;;;6.00;99.90;;;;;;2622786;47;19947;-70
2022/12/01 17:00:29;;;;;;;;;;;5.90;99.90;;;;;;2617798;47;19954;-66
2022/12/01 17:02:58;;;;;;;;;;;5.90;99.90;;;;;;2617646;54;20037;-65
2022/12/01 17:05:28;;;;;;;;;;;5.90;99.90;;;;;;2621241;39;20732;-65
2022/12/01 17:07:58;;;;;;;;;;;5.80;99.90;;;;;;2621592;47;19947;-65
2022/12/01 17:10:28;;;;;;;;;;;5.80;99.90;;;;;;2620782;54;19946;-66
2022/12/01 17:12:58;;;;;;;;;;;5.70;99.90;;;;;;2618475;54;19947;-74
2022/12/01 17:15:30;;;;;;;;;;;5.80;99.90;;;;;;2623383;46;19951;-68
2022/12/01 17:18:00;;;;;;;;;;;5.90;99.90;;;;;;2621982;54;20014;-67
2022/12/01 17:20:29;;;;;;;;;;;5.90;99.90;;;;;;2619368;54;20456;-66
2022/12/01 17:22:59;;;;;;;;;;;5.90;99.90;;;;;;2617466;47;20312;-66
2022/12/01 17:25:29;;;;;;;;;;;5.90;99.90;;;;;;2614575;47;19946;-66
2022/12/01 17:27:58;;;;;;;;;;;6.00;99.90;;;;;;2616778;39;20576;-68
2022/12/01 17:30:30;;;;;;;;;;;6.00;99.90;;;;;;2616363;54;19953;-68
2022/12/01 17:33:00;;;;;;;;;;;6.00;99.90;;;;;;2617035;47;19954;-66
2022/12/01 17:35:30;;;;;;;;;;;6.00;99.90;;;;;;2620797;46;19950;-67
2022/12/01 17:37:59;;;;;;;;;;;6.10;99.90;;;;;;2617558;54;20003;-67
2022/12/01 17:40:29;;;;;;;;;;;6.00;99.90;;;;;;2616962;47;20072;-66
2022/12/01 17:42:58;;;;;;;;;;;6.00;99.90;;;;;;2616043;47;20538;-65
2022/12/01 17:45:30;;;;;;;;;;;6.00;99.90;;;;;;2617317;39;20383;-66
2022/12/01 17:48:00;;;;;;;;;;;6.00;99.90;;;;;;2616156;54;20496;-66
2022/12/01 17:50:29;;;;;;;;;;;6.00;99.90;;;;;;2618178;47;20041;-66
2022/12/01 17:52:59;;;;;;;;;;;5.90;99.90;;;;;;2619397;47;20011;-66
2022/12/01 17:55:29;;;;;;;;;;;5.90;99.90;;;;;;2617917;39;20360;-67
2022/12/01 17:57:58;;;;;;;;;;;5.90;99.90;;;;;;2617249;47;19954;-67
2022/12/01 18:00:30;;;;;;;;;;;5.90;99.90;;;;;;2618657;54;19954;-65
2022/12/01 18:03:00;;;;;;;;;;;5.90;99.90;;;;;;2617645;47;19974;-66
2022/12/01 18:05:30;;;;;;;;;;;5.90;99.90;;;;;;2617318;54;20428;-72
2022/12/01 18:08:00;;;;;;;;;;;5.90;99.90;;;;;;2620669;54;19946;-66
2022/12/01 18:10:29;;;;;;;;;;;5.90;99.90;;;;;;2623458;47;19939;-66
2022/12/01 18:12:59;;;;;;;;;;;5.90;99.90;;;;;;2618058;54;19954;-67
2022/12/01 18:15:31;;;;;;;;;;;5.90;99.90;;;;;;2616736;54;20000;-67
2022/12/01 18:18:03;;;;;;;;;;;5.90;99.90;;;;;;2618068;47;19964;-66
2022/12/01 18:20:33;;;;;;;;;;;6.00;99.90;;;;;;2622753;54;19947;-66
2022/12/01 18:23:02;;;;;;;;;;;6.00;99.90;;;;;;2618705;47;20517;-66
2022/12/01 18:25:32;;;;;;;;;;;6.20;99.90;;;;;;2617415;47;19946;-65
2022/12/01 18:28:01;;;;;;;;;;;6.20;99.90;;;;;;2618977;54;19957;-66
2022/12/01 18:30:34;;;;;;;;;;;6.00;99.90;;;;;;2622263;54;20018;-66
2022/12/01 18:33:05;;;;;;;;;;;6.00;99.90;;;;;;2618861;47;20143;-66
2022/12/01 18:35:34;;;;;;;;;;;6.00;99.90;;;;;;2618511;47;20471;-67
2022/12/01 18:38:04;;;;;;;;;;;6.00;99.90;;;;;;2620330;47;19946;-68
2022/12/01 18:40:37;;;;;;;;;;;6.00;99.90;;;;;;2616246;54;20037;-66
2022/12/01 18:43:06;;;;;;;;;;;6.00;99.90;;;;;;2619590;54;19995;-67
2022/12/01 18:45:40;;;;;;;;;;;6.00;99.90;;;;;;2619380;54;19950;-66
2022/12/01 18:48:10;;;;;;;;;;;6.00;99.90;;;;;;2619879;47;19954;-66
2022/12/01 18:50:40;;;;;;;;;;;6.10;99.90;;;;;;2620791;47;19946;-66
2022/12/01 18:53:09;;;;;;;;;;;6.10;99.90;;;;;;2623342;54;19954;-67
2022/12/01 18:55:39;;;;;;;;;;;6.10;99.90;;;;;;2622767;47;19950;-67
2022/12/01 18:58:08;;;;;;;;;;;6.10;99.90;;;;;;2619699;47;19953;-68
2022/12/01 19:00:41;;;;;;;;;;;6.10;99.90;;;;;;2618235;39;20514;-67
2022/12/01 19:03:10;;;;;;;;;;;6.10;99.90;;;;;;2622497;47;19946;-66
2022/12/01 19:05:40;;;;;;;;;;;6.00;99.90;;;;;;2623016;54;19947;-66
2022/12/01 19:08:09;;;;;;;;;;;6.00;99.90;;;;;;2619229;47;20061;-66
2022/12/01 19:10:39;;;;;;;;;;;6.00;99.90;;;;;;2615516;46;20827;-66
2022/12/01 19:13:09;;;;;;;;;;;6.00;99.90;;;;;;2616247;47;20483;-67
2022/12/01 19:15:41;;;;;;;;;;;6.00;99.90;;;;;;2617654;47;19955;-68
2022/12/01 19:18:10;;;;;;;;;;;6.00;99.90;;;;;;2615483;54;19958;-67
2022/12/01 19:20:40;;;;;;;;;;;6.00;99.90;;;;;;2615765;47;19976;-68
2022/12/01 19:23:10;;;;;;;;;;;5.90;99.90;;;;;;2616690;54;19946;-66
2022/12/01 19:25:39;;;;;;;;;;;5.90;99.90;;;;;;2620707;54;19939;-64
2022/12/01 19:28:09;;;;;;;;;;;5.90;99.90;;;;;;2623550;47;19947;-65
2022/12/01 19:30:41;;;;;;;;;;;5.90;99.90;;;;;;2617039;47;20018;-65
2022/12/01 19:33:16;;;;;;;;;;;5.90;99.90;;;;;;2618938;47;19953;-68
2022/12/01 19:35:46;;;;;;;;;;;5.80;99.90;;;;;;2617734;47;19950;-68
2022/12/01 19:38:15;;;;;;;;;;;5.80;99.90;;;;;;2619685;47;19950;-66
2022/12/01 19:40:48;;;;;;;;;;;5.80;99.90;;;;;;2621653;47;19953;-67
2022/12/01 19:43:21;;;;;;;;;;;5.80;99.90;;;;;;2620764;47;19981;-68
2022/12/01 19:45:54;;;;;;;;;;;5.80;99.90;;;;;;2617207;47;20440;-68
2022/12/01 19:48:24;;;;;;;;;;;5.80;99.90;;;;;;2617641;47;19981;-66
2022/12/01 19:50:54;;;;;;;;;;;5.70;99.90;;;;;;2616270;47;19950;-68
2022/12/01 19:53:24;;;;;;;;;;;5.70;99.90;;;;;;2616414;54;19946;-68
2022/12/01 19:56:02;;;;;;;;;;;5.70;99.90;;;;;;2616176;47;19946;-68
2022/12/01 19:58:33;;;;;;;;;;;5.70;99.90;;;;;;2616017;47;19946;-68
2022/12/01 20:01:07;;;;;;;;;;;5.70;99.90;;;;;;2616345;51;19963;-69
2022/12/01 20:03:39;;;;;;;;;;;5.70;99.90;;;;;;2616258;54;19957;-67
2022/12/01 20:06:11;;;;;;;;;;;5.60;99.90;;;;;;2619898;31;20478;-68
2022/12/01 20:08:41;;;;;;;;;;;5.60;99.90;;;;;;2617827;47;19950;-67
2022/12/01 20:11:23;;;;;;;;;;;5.60;99.90;;;;;;2619890;54;20007;-72
2022/12/01 20:13:53;;;;;;;;;;;5.60;99.90;;;;;;2619781;39;20596;-67
2022/12/01 20:16:30;;;;;;;;;;;5.70;99.90;;;;;;2617744;47;20000;-68
2022/12/01 20:19:02;;;;;;;;;;;5.70;99.90;;;;;;2617922;54;19939;-68
2022/12/01 20:21:34;;;;;;;;;;;5.80;99.90;;;;;;2618927;54;20069;-66
2022/12/01 20:24:05;;;;;;;;;;;5.70;99.90;;;;;;2617928;47;20034;-65
2022/12/01 20:26:36;;;;;;;;;;;5.70;99.90;;;;;;2618193;47;20409;-67
2022/12/01 20:29:07;;;;;;;;;;;5.80;99.90;;;;;;2619114;54;19952;-67
2022/12/01 20:31:40;;;;;;;;;;;5.80;99.90;;;;;;2616496;54;19946;-67
2022/12/01 20:34:11;;;;;;;;;;;5.80;99.90;;;;;;2616810;51;19946;-67
2022/12/01 20:36:41;;;;;;;;;;;5.70;99.90;;;;;;2622224;54;19946;-66
2022/12/01 20:39:11;;;;;;;;;;;5.70;99.90;;;;;;2623217;51;19953;-67
2022/12/01 20:41:42;;;;;;;;;;;5.80;99.90;;;;;;2619674;54;20460;-67
2022/12/01 20:44:12;;;;;;;;;;;5.80;99.90;;;;;;2617678;54;20021;-67
2022/12/01 20:46:44;;;;;;;;;;;5.80;99.90;;;;;;2617838;47;19957;-66
2022/12/01 20:49:14;;;;;;;;;;;5.80;99.90;;;;;;2617991;47;19946;-68
2022/12/01 20:51:44;;;;;;;;;;;5.80;99.90;;;;;;2618091;54;19973;-67
2022/12/01 20:54:14;;;;;;;;;;;5.80;99.90;;;;;;2624569;54;19947;-67
2022/12/01 20:57:00;;;;;;;;;;;5.80;99.90;;;;;;2624326;51;20495;-67
2022/12/01 20:59:30;;;;;;;;;;;5.80;99.90;;;;;;2623046;47;20545;-67
2022/12/01 21:02:02;;;;;;;;;;;5.90;99.90;;;;;;2619626;54;19991;-67
2022/12/01 21:04:32;;;;;;;;;;;5.90;99.90;;;;;;2616797;47;19950;-70
2022/12/01 21:07:01;;;;;;;;;;;5.90;99.90;;;;;;2618752;46;19957;-68
2022/12/01 21:09:31;;;;;;;;;;;5.90;99.90;;;;;;2622626;47;19947;-68
2022/12/01 21:14:43;;;;;;;;;;;6.00;99.90;;;;;;2619953;47;19953;-67
2022/12/01 21:17:20;;;;;;;;;;;6.00;99.90;;;;;;2620253;39;20333;-67
2022/12/01 21:19:55;;;;;;;;;;;6.00;99.90;;;;;;2617954;50;19956;-68
2022/12/01 21:22:26;;;;;;;;;;;6.00;99.90;;;;;;2619511;54;19946;-66
2022/12/01 21:25:02;;;;;;;;;;;6.10;99.90;;;;;;2620631;47;19973;-67
2022/12/01 21:27:31;;;;;;;;;;;6.00;99.90;;;;;;2621024;47;19946;-67
2022/12/01 21:30:02;;;;;;;;;;;6.00;99.90;;;;;;2621135;54;19951;-68
2022/12/01 21:32:36;;;;;;;;;;;6.10;99.90;;;;;;2619544;54;19971;-68
2022/12/01 21:35:16;;;;;;;;;;;6.10;99.90;;;;;;2619903;51;19953;-67
2022/12/01 21:37:46;;;;;;;;;;;6.10;99.90;;;;;;2620460;54;19953;-68
2022/12/01 21:40:17;;;;;;;;;;;6.10;99.90;;;;;;2620708;47;19951;-67
2022/12/01 21:42:47;;;;;;;;;;;6.10;99.90;;;;;;2620013;47;20521;-68
2022/12/01 21:45:20;;;;;;;;;;;6.10;99.90;;;;;;2619338;47;20464;-67
2022/12/01 21:47:53;;;;;;;;;;;6.10;99.90;;;;;;2619659;54;19981;-69
2022/12/01 21:50:23;;;;;;;;;;;6.10;99.90;;;;;;2620282;54;19950;-67
2022/12/01 21:52:53;;;;;;;;;;;6.10;99.90;;;;;;2620525;54;19955;-68
2022/12/01 21:55:40;;;;;;;;;;;6.10;99.90;;;;;;2624368;50;19943;-67
2022/12/01 21:58:23;;;;;;;;;;;6.10;99.90;;;;;;2622859;54;19938;-67
2022/12/01 22:00:53;;;;;;;;;;;6.20;99.90;;;;;;2619850;47;19958;-69
2022/12/01 22:03:32;;;;;;;;;;;6.20;99.90;;;;;;2619884;47;19957;-68
2022/12/01 22:06:03;;;;;;;;;;;6.20;99.90;;;;;;2619284;54;19946;-68
2022/12/01 22:08:55;;;;;;;;;;;6.20;99.90;;;;;;2618564;47;20083;-67
2022/12/01 22:11:25;;;;;;;;;;;6.20;99.90;;;;;;2617293;50;19946;-67
2022/12/01 22:13:56;;;;;;;;;;;6.20;99.90;;;;;;2619743;54;19991;-67
2022/12/01 22:16:29;;;;;;;;;;;6.20;99.90;;;;;;2620304;47;20456;-67
2022/12/01 22:19:02;;;;;;;;;;;6.20;99.90;;;;;;2619080;47;19987;-66
2022/12/01 22:21:36;;;;;;;;;;;6.20;99.90;;;;;;2618966;39;20472;-67
2022/12/01 22:24:20;;;;;;;;;;;6.20;99.90;;;;;;2619275;47;20488;-68
2022/12/01 22:26:51;;;;;;;;;;;6.10;99.90;;;;;;2618201;54;19946;-67
2022/12/01 22:29:30;;;;;;;;;;;6.20;99.90;;;;;;2618275;51;20529;-67
2022/12/01 22:32:23;;;;;;;;;;;6.20;99.90;;;;;;2618737;54;19950;-67
2022/12/01 22:34:57;;;;;;;;;;;6.20;99.90;;;;;;2617854;47;19953;-67
2022/12/01 22:37:33;;;;;;;;;;;6.20;99.90;;;;;;2618222;47;20420;-67
2022/12/01 22:40:03;;;;;;;;;;;6.20;99.90;;;;;;2622011;50;19992;-66
2022/12/01 22:42:33;;;;;;;;;;;6.20;99.90;;;;;;2623461;54;19953;-68
2022/12/01 22:45:04;;;;;;;;;;;6.20;99.90;;;;;;2623053;51;19964;-67
2022/12/01 22:47:34;;;;;;;;;;;6.20;99.90;;;;;;2623881;39;20373;-67
2022/12/01 22:50:21;;;;;;;;;;;6.20;99.90;;;;;;2621345;51;19988;-67
2022/12/01 22:52:51;;;;;;;;;;;6.20;99.90;;;;;;2620296;51;19954;-67
2022/12/01 22:55:21;;;;;;;;;;;6.30;99.90;;;;;;2619898;39;20170;-67
2022/12/01 22:57:51;;;;;;;;;;;6.30;99.90;;;;;;2619003;52;19954;-67
2022/12/01 23:00:22;;;;;;;;;;;6.30;99.90;;;;;;2618840;54;19950;-68
2022/12/01 23:02:53;;;;;;;;;;;6.30;99.90;;;;;;2619206;51;19958;-67
2022/12/01 23:05:26;;;;;;;;;;;6.30;99.90;;;;;;2619166;47;19946;-67
2022/12/01 23:07:56;;;;;;;;;;;6.30;99.90;;;;;;2623141;46;19961;-66